Sunday, November 17, 2019, 3:48 PM EST
Back to Local

KMRH, Beaufort Smith Field

Location: Beaufort, NC, United States Lat: 34.733
Local Time: 3:48 PM EST (20:48 GMT) Lon: -76.65
Time Zone: US/Eastern Elev: 9 ft

Show me the last for .
Show Decoded

2019-11-17 14:58 METAR KMRH 171958Z AUTO 01025G32KT 10SM OVC011 12/11 A2980 RMK AO2 PK WND
                 01033/1920 SLP091 T01220106 $ =
2019-11-17 13:58 METAR KMRH 171858Z AUTO 01019G33KT 10SM OVC011 12/11 A2980 RMK AO2 PK WND
                 03036/1845 RAB10E24 SLP092 P0000 T01220106 $ =
2019-11-17 12:58 METAR KMRH 171758Z AUTO 36022G32KT 10SM OVC011 13/11 A2981 RMK AO2 PK WND
                 01037/1704 SLP095 T01280111 10144 20122 58015 $ =
2019-11-17 11:58 METAR KMRH 171658Z AUTO 01022G34KT 9SM OVC012 14/12 A2983 RMK AO2 PK WND
                 01040/1608 SLP102 T01390117 $ =
2019-11-17 10:58 METAR KMRH 171558Z AUTO 02027G38KT 10SM OVC012 14/12 A2986 RMK AO2 PK WND
                 01038/1503 SLP110 T01390117 $ =
2019-11-17 09:58 METAR KMRH 171458Z AUTO 02024G39KT 10SM OVC010 13/12 A2985 RMK AO2 PK WND
                 01040/1416 SLP110 T01330117 50004 $ =
2019-11-17 08:58 METAR KMRH 171358Z AUTO 01024G39KT 10SM OVC010 13/12 A2986 RMK AO2 PK WND
                 01039/1353 SLP112 T01280117 $ =
2019-11-17 08:19 METAR KMRH 171319Z AUTO 01023G39KT 10SM OVC010 13/12 A2986 RMK AO2 PK WND
                 36039/1316 T01280117 $ =
2019-11-17 07:58 METAR KMRH 171258Z AUTO 02024G34KT 10SM OVC009 12/12 A2986 RMK AO2 PK WND
                 01039/1228 SLP112 T01220117 $ =
2019-11-17 06:58 METAR KMRH 171158Z AUTO 01025G36KT 7SM OVC008 12/12 A2984 RMK AO2 PK WND
                 01041/1118 RAE07B25E52 SLP106 P0000 60014 70087 T01220117 10128 20117 53004 $ =
2019-11-17 06:35 METAR KMRH 171135Z AUTO 01027G35KT 5SM -RA BR OVC009 12/12 A2984 RMK AO2 PK WND
                 01041/1118 RAE07B25 P0000 T01220117 $ =
2019-11-17 05:58 METAR KMRH 171058Z AUTO 02028G38KT 7SM -RA OVC011 12/12 A2984 RMK AO2 PK WND
                 02039/1000 SLP105 P0001 T01220117 $ =
2019-11-17 04:58 METAR KMRH 170958Z AUTO 02022G38KT 7SM RA OVC013 13/11 A2982 RMK AO2 PK WND
                 01039/0940 RAB09 SLP099 P0002 T01280111 $ =
2019-11-17 03:58 METAR KMRH 170858Z AUTO 01022G34KT 10SM OVC014 13/11 A2983 RMK AO2 PK WND
                 02039/0840 RAE25 SLP101 P0000 60011 T01280111 56005 $ =
2019-11-17 03:41 METAR KMRH 170841Z AUTO 02027G39KT 10SM OVC014 13/11 A2983 RMK AO2 PK WND
                 02039/0840 RAE25 P0000 T01280111 $ =
2019-11-17 02:58 METAR KMRH 170758Z AUTO 02028G39KT 9SM -RA OVC015 12/11 A2983 RMK AO2 PK WND
                 02039/0758 SLP102 P0002 T01220111 $ =
2019-11-17 02:53 METAR KMRH 170753Z AUTO 02021G36KT 8SM -RA OVC015 12/11 A2983 RMK AO2 PK WND
                 02037/0722 P0002 $ =
2019-11-17 01:58 METAR KMRH 170658Z AUTO 02024G36KT 5SM RA BR BKN013 BKN049 OVC070 12/11 A2985
                 RMK AO2 PK WND 01040/0639 SLP107 P0009 T01220111 $ =
2019-11-17 01:51 METAR KMRH 170651Z AUTO 02027G38KT 5SM RA BR SCT012 BKN047 OVC070 12/11 A2985
                 RMK AO2 PK WND 01040/0639 P0008 T01220111 $ =
2019-11-17 00:58 METAR KMRH 170558Z AUTO 02027G39KT 4SM RA BR BKN011 OVC030 12/12 A2986 RMK AO2
                 PK WND 01039/0552 SLP110 P0016 60062 T01170117 10122 20117 56014 $ =
2019-11-16 23:58 METAR KMRH 170458Z AUTO 02027G41KT 4SM +RA BR BKN012 BKN017 OVC036 12/11 A2987
                 RMK AO2 PK WND 02041/0454 SLP114 P0015 T01170106 401280106 $ =
2019-11-16 22:58 METAR KMRH 170358Z AUTO 02025G36KT 6SM RA BR BKN013 OVC022 12/11 A2988 RMK AO2
                 PK WND 36036/0316 SLP120 P0013 T01170106 $ =
2019-11-16 22:48 METAR KMRH 170348Z AUTO 02023G34KT 6SM RA BR BKN013 OVC019 12/11 A2988 RMK AO2
                 PK WND 36036/0316 P0012 T01170106 $ =
2019-11-16 21:58 METAR KMRH 170258Z AUTO 02023G42KT 8SM -RA OVC019 12/11 A2990 RMK AO2 PK WND
                 02042/0252 LTG DSNT SE AND S SLP124 P0013 60018 T01170106 $ =
2019-11-16 20:58 METAR KMRH 170158Z AUTO 02023G38KT 5SM RA BR OVC017 12/11 A2990 RMK AO2 PK WND
                 01040/0117 LTG DSNT SE RAB16 SLP125 P0005 T01170106 $ =
2019-11-16 20:45 METAR KMRH 170145Z AUTO 02026G39KT 7SM RA OVC017 12/10 A2989 RMK AO2 PK WND
                 01040/0117 RAB16 P0003 T01170100 $ =
2019-11-16 19:58 METAR KMRH 170058Z AUTO 02025G38KT 10SM -RA OVC016 12/10 A2988 RMK AO2 PK WND
                 01044/0000 RAB57 SLP120 P0000 I1000 T01220100 =
2019-11-16 18:58 METAR KMRH 162358Z AUTO 02026G40KT 8SM OVC012 12/11 A2988 RMK AO2 PK WND
                 01046/2322 RAE15 SLP117 P0000 60010 I1000 I6/// T01170106 10122 20111 58003 =
2019-11-16 17:58 METAR KMRH 162258Z AUTO 02028G40KT 8SM -RA OVC011 12/11 A2989 RMK AO2 PK WND
                 02043/2247 SLP122 P0004 I1000 T01170106 =
2019-11-16 17:27 METAR KMRH 162227Z AUTO 02027G36KT 4SM -RA BR OVC010 12/11 A2989 RMK AO2 PK WND
                 02039/2208 P0002 I1000 T01170111 =
2019-11-16 16:58 METAR KMRH 162158Z AUTO 02027G39KT 4SM -RA BR OVC009 12/11 A2988 RMK AO2 PK WND
                 02043/2111 SLP120 P0004 I1000 T01220111 =
2019-11-16 16:25 METAR KMRH 162125Z AUTO 02029G38KT 2SM -RA BR BKN009 OVC014 12/11 A2988 RMK AO2
                 PK WND 02043/2111 P0002 I1000 T01220111 =
2019-11-16 16:17 METAR KMRH 162117Z AUTO 01026G43KT 2 1/2SM -RA BR OVC011 12/11 A2989 RMK AO2 PK
                 WND 02043/2111 P0002 I1000 T01220111 =
2019-11-16 16:06 METAR KMRH 162106Z AUTO 02026G37KT 2SM -RA BR BKN009 OVC014 12/11 A2989 RMK AO2
                 PK WND 03037/2106 CIG 007V011 P0001 I1000 T01220111 =
2019-11-16 15:58 METAR KMRH 162058Z AUTO 02027G37KT 3SM -RA BR BKN009 OVC014 12/11 A2990 RMK AO2
                 PK WND 02042/2023 SLP124 P0002 60002 I1000 I3/// T01220111 56004 =
2019-11-16 15:50 METAR KMRH 162050Z AUTO 02025G37KT 2SM -RA BR OVC009 12/11 A2990 RMK AO2 PK WND
                 02042/2023 CIG 007V014 P0001 I1000 T01220111 =

Support USWX by starting your Amazon purchase here.